Time;durP1;ratioP1;P1;durP2;ratioP2;P2;SDS_P1;SDS_P2;PMS_P1;PMS_P2;Temp;Humidity;BMP_temperature;BMP_pressure;BME280_temperature;BME280_humidity;BME280_pressure;Samples;Min_cycle;Max_cycle;Signal;HPM_P1;HPM_P2
2024/01/30 00:02:26;;;;;;;43.25;18.15;;;;;;;;;;6134872;28;20055;-83
2024/01/30 00:05:28;;;;;;;46.88;20.77;;;;;;;;;;6150608;28;20066;-83
2024/01/30 00:08:30;;;;;;;41.95;19.05;;;;;;;;;;6154334;28;20473;-84
2024/01/30 00:11:31;;;;;;;43.45;17.45;;;;;;;;;;6137313;28;20058;-82
2024/01/30 00:14:33;;;;;;;34.55;17.02;;;;;;;;;;6136171;28;20055;-81
2024/01/30 00:17:36;;;;;;;38.17;17.45;;;;;;;;;;6150199;28;20058;-82
2024/01/30 00:20:38;;;;;;;30.10;14.63;;;;;;;;;;6133624;28;20454;-83
2024/01/30 00:23:41;;;;;;;33.35;15.32;;;;;;;;;;6135266;28;20067;-81
2024/01/30 00:26:42;;;;;;;42.15;19.77;;;;;;;;;;6147628;28;20844;-81
2024/01/30 00:29:44;;;;;;;37.80;17.50;;;;;;;;;;6138298;28;20047;-82
2024/01/30 00:32:46;;;;;;;38.28;17.08;;;;;;;;;;6141890;28;20558;-81
2024/01/30 00:35:47;;;;;;;40.10;16.70;;;;;;;;;;6131466;28;20047;-83
2024/01/30 00:38:49;;;;;;;30.67;13.98;;;;;;;;;;6134135;28;20706;-82
2024/01/30 00:41:51;;;;;;;53.85;18.95;;;;;;;;;;6148098;28;20107;-81
2024/01/30 00:44:53;;;;;;;87.80;28.88;;;;;;;;;;6137973;28;20043;-82
2024/01/30 00:47:54;;;;;;;54.15;19.60;;;;;;;;;;6149637;28;20067;-83
2024/01/30 00:50:56;;;;;;;63.35;22.40;;;;;;;;;;6151986;28;20055;-83
2024/01/30 00:53:58;;;;;;;35.60;15.90;;;;;;;;;;6160846;28;20453;-83
2024/01/30 00:56:59;;;;;;;60.38;22.08;;;;;;;;;;6146920;28;20035;-83
2024/01/30 01:00:01;;;;;;;71.35;25.00;;;;;;;;;;6158467;28;20047;-82
2024/01/30 01:03:03;;;;;;;67.13;22.67;;;;;;;;;;6132494;28;20047;-82
2024/01/30 01:06:05;;;;;;;38.90;16.08;;;;;;;;;;6149937;28;20050;-82
2024/01/30 01:09:06;;;;;;;38.17;16.05;;;;;;;;;;6135796;28;20141;-82
2024/01/30 01:12:08;;;;;;;38.50;15.38;;;;;;;;;;6136425;28;20039;-83
2024/01/30 01:15:10;;;;;;;43.55;16.40;;;;;;;;;;6129561;28;20059;-82
2024/01/30 01:18:12;;;;;;;75.68;24.75;;;;;;;;;;6131598;28;20051;-81
2024/01/30 01:21:14;;;;;;;168.73;44.35;;;;;;;;;;6130510;28;20054;-82
2024/01/30 01:24:15;;;;;;;122.18;35.05;;;;;;;;;;6147827;28;20055;-83
2024/01/30 01:27:17;;;;;;;74.78;24.98;;;;;;;;;;6134559;28;20069;-83
2024/01/30 01:30:21;;;;;;;56.92;19.65;;;;;;;;;;6140161;28;20051;-82
2024/01/30 01:33:23;;;;;;;37.20;16.08;;;;;;;;;;6150941;28;20063;-83
2024/01/30 01:36:25;;;;;;;42.92;15.30;;;;;;;;;;6137825;28;20059;-82
2024/01/30 01:39:26;;;;;;;48.05;16.85;;;;;;;;;;6139253;28;20050;-83
2024/01/30 01:42:28;;;;;;;53.35;18.95;;;;;;;;;;6148658;28;20048;-82
2024/01/30 01:45:30;;;;;;;44.90;17.02;;;;;;;;;;6150126;28;20078;-81
2024/01/30 01:48:32;;;;;;;29.75;13.88;;;;;;;;;;6136834;28;20051;-82
2024/01/30 01:51:36;;;;;;;30.80;13.82;;;;;;;;;;6133559;28;20051;-84
2024/01/30 01:54:37;;;;;;;30.40;12.35;;;;;;;;;;6136900;28;20053;-82
2024/01/30 01:57:39;;;;;;;27.75;12.43;;;;;;;;;;6126221;28;20047;-82
2024/01/30 02:00:41;;;;;;;25.80;12.35;;;;;;;;;;6136407;28;20090;-83
2024/01/30 02:03:43;;;;;;;27.93;12.37;;;;;;;;;;6151308;28;20508;-82
2024/01/30 02:06:45;;;;;;;27.90;13.25;;;;;;;;;;6113912;28;20355;-81
2024/01/30 02:09:47;;;;;;;26.73;12.25;;;;;;;;;;6149967;28;20128;-83
2024/01/30 02:12:50;;;;;;;27.40;12.23;;;;;;;;;;6132719;28;20105;-82
2024/01/30 02:15:51;;;;;;;26.55;13.25;;;;;;;;;;6132942;28;20058;-81
2024/01/30 02:18:53;;;;;;;23.00;11.13;;;;;;;;;;6116469;28;20185;-81
2024/01/30 02:21:55;;;;;;;27.38;11.85;;;;;;;;;;6145134;28;20044;-81
2024/01/30 02:24:57;;;;;;;28.05;11.65;;;;;;;;;;6138865;28;20105;-82
2024/01/30 02:27:58;;;;;;;26.65;12.20;;;;;;;;;;6131047;28;20130;-82
2024/01/30 02:31:00;;;;;;;27.30;11.38;;;;;;;;;;6126833;28;20047;-81
2024/01/30 02:34:02;;;;;;;26.42;11.82;;;;;;;;;;6117403;28;20616;-82
2024/01/30 02:37:04;;;;;;;26.02;11.55;;;;;;;;;;6138476;28;20113;-80
2024/01/30 02:40:06;;;;;;;28.20;11.88;;;;;;;;;;6138226;28;20058;-81
2024/01/30 02:43:08;;;;;;;25.37;11.03;;;;;;;;;;6139845;28;20506;-81
2024/01/30 02:46:10;;;;;;;24.75;12.93;;;;;;;;;;6133422;28;20050;-81
2024/01/30 02:49:11;;;;;;;28.73;11.80;;;;;;;;;;6139297;28;20051;-82
2024/01/30 02:52:13;;;;;;;25.98;11.63;;;;;;;;;;6154435;28;20051;-81
2024/01/30 02:55:17;;;;;;;25.10;10.98;;;;;;;;;;6144354;28;20051;-82
2024/01/30 02:58:20;;;;;;;24.63;12.15;;;;;;;;;;6149047;28;20051;-83
2024/01/30 03:01:21;;;;;;;26.35;11.68;;;;;;;;;;6146231;28;20292;-83
2024/01/30 03:04:24;;;;;;;22.73;11.23;;;;;;;;;;6147415;28;20496;-82
2024/01/30 03:07:26;;;;;;;27.15;12.38;;;;;;;;;;6144429;28;20050;-81
2024/01/30 03:10:28;;;;;;;23.75;11.52;;;;;;;;;;6144385;28;20050;-82
2024/01/30 03:13:29;;;;;;;23.70;11.85;;;;;;;;;;6141609;28;20046;-83
2024/01/30 03:16:31;;;;;;;27.90;11.75;;;;;;;;;;6150742;28;20052;-83
2024/01/30 03:19:33;;;;;;;26.23;12.05;;;;;;;;;;6129514;28;20043;-82
2024/01/30 03:22:35;;;;;;;23.70;11.20;;;;;;;;;;6159562;28;20158;-83
2024/01/30 03:25:37;;;;;;;25.73;11.52;;;;;;;;;;6138767;28;20446;-82
2024/01/30 03:28:38;;;;;;;24.20;11.25;;;;;;;;;;6133989;28;20051;-81
2024/01/30 03:31:40;;;;;;;27.83;12.60;;;;;;;;;;6165221;28;20059;-79
2024/01/30 03:34:42;;;;;;;31.42;11.90;;;;;;;;;;6161006;28;20031;-80
2024/01/30 03:37:43;;;;;;;33.70;12.30;;;;;;;;;;6163725;28;20057;-80
2024/01/30 03:40:45;;;;;;;34.90;13.85;;;;;;;;;;6148860;28;20722;-82
2024/01/30 03:43:47;;;;;;;29.42;12.27;;;;;;;;;;6149692;28;20047;-82
2024/01/30 03:46:49;;;;;;;23.95;11.13;;;;;;;;;;6137976;28;20044;-83
2024/01/30 03:49:52;;;;;;;30.48;11.75;;;;;;;;;;6138372;28;20067;-82
2024/01/30 03:52:54;;;;;;;29.75;11.55;;;;;;;;;;6128109;28;20084;-82
2024/01/30 03:55:55;;;;;;;24.17;11.60;;;;;;;;;;6158405;28;20242;-82
2024/01/30 03:58:58;;;;;;;33.58;13.90;;;;;;;;;;6158112;28;20439;-82
2024/01/30 04:02:00;;;;;;;37.83;12.90;;;;;;;;;;6115354;28;20075;-80
2024/01/30 04:05:02;;;;;;;32.63;12.85;;;;;;;;;;6129721;28;20058;-80
2024/01/30 04:08:04;;;;;;;35.67;12.73;;;;;;;;;;6143156;28;20047;-82
2024/01/30 04:11:06;;;;;;;30.73;12.80;;;;;;;;;;6123080;28;20071;-81
2024/01/30 04:14:09;;;;;;;36.40;13.38;;;;;;;;;;6139345;28;20058;-81
2024/01/30 04:17:11;;;;;;;41.92;13.02;;;;;;;;;;6137692;28;20051;-81
2024/01/30 04:20:16;;;;;;;35.45;13.80;;;;;;;;;;6150575;28;20094;-80
2024/01/30 04:23:18;;;;;;;43.63;15.00;;;;;;;;;;6152300;28;20509;-81
2024/01/30 04:26:19;;;;;;;49.58;17.42;;;;;;;;;;6133033;28;20411;-82
2024/01/30 04:29:22;;;;;;;35.42;14.50;;;;;;;;;;6139557;28;20406;-81
2024/01/30 04:32:24;;;;;;;46.42;17.02;;;;;;;;;;6156662;28;20486;-81
2024/01/30 04:35:25;;;;;;;41.78;13.93;;;;;;;;;;6142223;28;20529;-81
2024/01/30 04:38:27;;;;;;;39.15;13.60;;;;;;;;;;6139923;28;20268;-82
2024/01/30 04:41:31;;;;;;;43.47;13.73;;;;;;;;;;6151877;28;20054;-83
2024/01/30 04:44:33;;;;;;;29.90;14.07;;;;;;;;;;6145102;28;20058;-82
2024/01/30 04:47:34;;;;;;;33.03;13.05;;;;;;;;;;6155972;28;20455;-81
2024/01/30 04:50:36;;;;;;;35.05;14.80;;;;;;;;;;6136963;28;20051;-81
2024/01/30 04:53:39;;;;;;;35.28;12.52;;;;;;;;;;6132768;28;20050;-81
2024/01/30 04:56:41;;;;;;;40.72;15.07;;;;;;;;;;6123522;28;20051;-81
2024/01/30 04:59:42;;;;;;;33.42;13.20;;;;;;;;;;6140756;28;20338;-80
2024/01/30 05:02:44;;;;;;;36.53;14.32;;;;;;;;;;6145467;28;20043;-82
2024/01/30 05:05:46;;;;;;;31.88;13.30;;;;;;;;;;6161571;28;20050;-81
2024/01/30 05:08:48;;;;;;;31.85;13.77;;;;;;;;;;6126762;28;20043;-81
2024/01/30 05:11:49;;;;;;;32.30;13.45;;;;;;;;;;6135038;28;20071;-80
2024/01/30 05:14:51;;;;;;;38.38;14.70;;;;;;;;;;6152067;28;20055;-80
2024/01/30 05:17:53;;;;;;;35.85;13.65;;;;;;;;;;6156939;28;20081;-80
2024/01/30 05:20:55;;;;;;;44.83;16.00;;;;;;;;;;6133165;28;20524;-81
2024/01/30 05:23:57;;;;;;;40.90;16.17;;;;;;;;;;6140424;28;20051;-83
2024/01/30 05:26:58;;;;;;;46.80;18.55;;;;;;;;;;6105930;28;20051;-81
2024/01/30 05:30:00;;;;;;;45.80;19.63;;;;;;;;;;6134409;28;20567;-81
2024/01/30 05:33:02;;;;;;;45.22;18.73;;;;;;;;;;6132821;28;20081;-81
2024/01/30 05:36:04;;;;;;;41.27;18.60;;;;;;;;;;6133470;28;20085;-82
2024/01/30 05:39:07;;;;;;;32.53;16.02;;;;;;;;;;6136563;28;20055;-81
2024/01/30 05:42:10;;;;;;;41.55;18.55;;;;;;;;;;6131618;28;20058;-82
2024/01/30 05:45:12;;;;;;;43.72;16.08;;;;;;;;;;6117893;28;20055;-81
2024/01/30 05:48:13;;;;;;;34.47;14.63;;;;;;;;;;6125991;28;20055;-82
2024/01/30 05:51:15;;;;;;;40.08;15.60;;;;;;;;;;6115209;28;20047;-81
2024/01/30 05:54:17;;;;;;;35.17;15.15;;;;;;;;;;6134546;28;20047;-81
2024/01/30 05:57:18;;;;;;;40.17;15.25;;;;;;;;;;6134004;28;20051;-82
2024/01/30 06:00:20;;;;;;;37.60;14.77;;;;;;;;;;6150787;28;20069;-83
2024/01/30 06:03:22;;;;;;;36.33;15.07;;;;;;;;;;6155908;28;20546;-83
2024/01/30 06:06:24;;;;;;;44.35;16.00;;;;;;;;;;6138428;28;20039;-83
2024/01/30 06:09:26;;;;;;;50.25;15.85;;;;;;;;;;6149997;28;20503;-84
2024/01/30 06:12:28;;;;;;;48.65;17.25;;;;;;;;;;6146278;28;20107;-84
2024/01/30 06:15:29;;;;;;;59.17;19.00;;;;;;;;;;6162032;28;20140;-84
2024/01/30 06:18:31;;;;;;;80.03;23.20;;;;;;;;;;6148281;28;20130;-84
2024/01/30 06:21:36;;;;;;;68.40;23.20;;;;;;;;;;6152476;28;20050;-84
2024/01/30 06:24:38;;;;;;;53.17;19.55;;;;;;;;;;6171199;28;20055;-85
2024/01/30 06:27:40;;;;;;;39.58;14.32;;;;;;;;;;6170209;28;20051;-84
2024/01/30 06:30:42;;;;;;;40.78;14.32;;;;;;;;;;6164690;28;20102;-82
2024/01/30 06:33:46;;;;;;;35.45;13.60;;;;;;;;;;6162361;28;20051;-82
2024/01/30 06:36:48;;;;;;;32.83;13.75;;;;;;;;;;6161622;28;20051;-82
2024/01/30 06:39:49;;;;;;;32.75;13.82;;;;;;;;;;6162247;28;20047;-83
2024/01/30 06:42:51;;;;;;;44.80;15.80;;;;;;;;;;6152445;28;20138;-83
2024/01/30 06:45:53;;;;;;;41.92;14.65;;;;;;;;;;6142642;28;20071;-86
2024/01/30 06:48:55;;;;;;;36.60;13.80;;;;;;;;;;6153505;28;20049;-85
2024/01/30 06:51:56;;;;;;;37.75;14.60;;;;;;;;;;6147026;28;20043;-85
2024/01/30 06:54:58;;;;;;;40.22;15.57;;;;;;;;;;6140451;28;20055;-85
2024/01/30 06:58:02;;;;;;;36.55;15.05;;;;;;;;;;6117715;28;20043;-85
2024/01/30 07:01:06;;;;;;;39.92;14.93;;;;;;;;;;6145735;28;20514;-85
2024/01/30 07:04:08;;;;;;;39.90;14.15;;;;;;;;;;6152132;28;20106;-86
2024/01/30 07:07:12;;;;;;;42.55;15.48;;;;;;;;;;6154494;28;20050;-86
2024/01/30 07:10:15;;;;;;;41.75;16.70;;;;;;;;;;6153476;28;20345;-85
2024/01/30 07:13:18;;;;;;;39.05;15.48;;;;;;;;;;6149406;28;20055;-85
2024/01/30 07:16:20;;;;;;;39.58;15.85;;;;;;;;;;6149238;28;20074;-86
2024/01/30 07:19:22;;;;;;;44.38;15.70;;;;;;;;;;6146044;28;20050;-85
2024/01/30 07:22:24;;;;;;;42.10;16.08;;;;;;;;;;6164023;28;20426;-86
2024/01/30 07:25:26;;;;;;;36.60;14.03;;;;;;;;;;6129984;28;20046;-85
2024/01/30 07:28:29;;;;;;;37.30;14.13;;;;;;;;;;6137628;28;20529;-85
2024/01/30 07:31:31;;;;;;;38.78;15.50;;;;;;;;;;6118692;28;20533;-87
2024/01/30 07:34:36;;;;;;;38.78;15.45;;;;;;;;;;6145205;28;20043;-86
2024/01/30 07:37:50;;;;;;;39.58;15.00;;;;;;;;;;6134979;28;20495;-85
2024/01/30 07:40:52;;;;;;;39.17;16.25;;;;;;;;;;6151272;28;20058;-84
2024/01/30 07:43:59;;;;;;;46.72;16.73;;;;;;;;;;6144174;28;20047;-85
2024/01/30 07:47:02;;;;;;;42.75;16.45;;;;;;;;;;6150292;28;20121;-83
2024/01/30 07:50:10;;;;;;;45.13;15.68;;;;;;;;;;6155552;28;20047;-86
2024/01/30 07:53:26;;;;;;;38.45;17.75;;;;;;;;;;6097019;28;20043;-84
2024/01/30 07:56:28;;;;;;;40.03;15.82;;;;;;;;;;6101567;28;20054;-85
2024/01/30 07:59:30;;;;;;;48.58;16.92;;;;;;;;;;6117261;28;20051;-85
2024/01/30 08:02:32;;;;;;;42.00;18.08;;;;;;;;;;6132955;28;20047;-86
2024/01/30 08:05:33;;;;;;;38.20;15.38;;;;;;;;;;6131847;28;20058;-85
2024/01/30 08:08:35;;;;;;;41.30;16.67;;;;;;;;;;6113762;28;20051;-85
2024/01/30 08:11:40;;;;;;;29.73;14.07;;;;;;;;;;6122849;28;20063;-84
2024/01/30 08:14:42;;;;;;;34.45;13.65;;;;;;;;;;6136532;28;20122;-86
2024/01/30 08:17:44;;;;;;;33.40;15.35;;;;;;;;;;6134264;28;20344;-84
2024/01/30 08:20:46;;;;;;;37.97;18.70;;;;;;;;;;6133943;28;20199;-86
2024/01/30 08:23:48;;;;;;;34.00;15.15;;;;;;;;;;6132242;28;20121;-86
2024/01/30 08:26:49;;;;;;;39.50;15.73;;;;;;;;;;6138467;28;20043;-86
2024/01/30 08:29:51;;;;;;;40.50;17.60;;;;;;;;;;6109341;28;20054;-85
2024/01/30 08:32:53;;;;;;;39.10;17.33;;;;;;;;;;6153172;28;20514;-86
2024/01/30 08:35:55;;;;;;;57.33;24.10;;;;;;;;;;6130645;28;20546;-86
2024/01/30 08:38:57;;;;;;;53.80;24.42;;;;;;;;;;6144892;28;20043;-86
2024/01/30 08:42:05;;;;;;;41.75;18.70;;;;;;;;;;6116693;28;20135;-86
2024/01/30 08:45:07;;;;;;;34.70;16.70;;;;;;;;;;6138869;28;20046;-86
2024/01/30 08:48:09;;;;;;;46.45;19.00;;;;;;;;;;6124375;28;20047;-86
2024/01/30 08:51:11;;;;;;;38.38;17.15;;;;;;;;;;6111147;28;20055;-86
2024/01/30 08:54:13;;;;;;;28.58;13.60;;;;;;;;;;6105111;28;20054;-87
2024/01/30 08:57:14;;;;;;;34.00;17.30;;;;;;;;;;6167844;28;20050;-87
2024/01/30 09:00:17;;;;;;;39.67;19.05;;;;;;;;;;6171823;28;20079;-88
2024/01/30 09:03:19;;;;;;;44.40;20.10;;;;;;;;;;6159551;28;20058;-87
2024/01/30 09:06:21;;;;;;;45.00;19.97;;;;;;;;;;6138249;28;20055;-87
2024/01/30 09:09:23;;;;;;;46.33;20.77;;;;;;;;;;6136934;28;20047;-87
2024/01/30 09:12:24;;;;;;;44.08;20.52;;;;;;;;;;6125218;28;20045;-89
2024/01/30 09:15:26;;;;;;;39.60;20.33;;;;;;;;;;6167426;28;20050;-88
2024/01/30 09:18:28;;;;;;;37.38;16.23;;;;;;;;;;6163419;28;20061;-87
2024/01/30 09:21:30;;;;;;;44.78;22.05;;;;;;;;;;6138153;28;20042;-86
2024/01/30 09:24:32;;;;;;;44.75;21.05;;;;;;;;;;6131629;28;20051;-87
2024/01/30 09:27:34;;;;;;;36.63;16.92;;;;;;;;;;6151945;28;20047;-86
2024/01/30 09:30:36;;;;;;;40.45;19.38;;;;;;;;;;6154722;28;20043;-86
2024/01/30 09:33:38;;;;;;;37.25;17.40;;;;;;;;;;6153783;28;20357;-86
2024/01/30 09:36:40;;;;;;;35.60;17.15;;;;;;;;;;6118880;28;20051;-88
2024/01/30 09:39:42;;;;;;;30.58;16.02;;;;;;;;;;6127736;28;20511;-87
2024/01/30 09:42:47;;;;;;;36.40;18.00;;;;;;;;;;6144075;28;20057;-87
2024/01/30 09:45:50;;;;;;;44.47;21.15;;;;;;;;;;6130944;28;20077;-87
2024/01/30 09:48:55;;;;;;;46.95;21.70;;;;;;;;;;6110876;28;20106;-87
2024/01/30 09:51:57;;;;;;;43.25;20.15;;;;;;;;;;6126830;28;20058;-87
2024/01/30 09:55:01;;;;;;;45.97;19.38;;;;;;;;;;6122668;28;20047;-87
2024/01/30 09:58:05;;;;;;;41.25;20.70;;;;;;;;;;6126722;28;20050;-87
2024/01/30 10:01:07;;;;;;;39.05;19.98;;;;;;;;;;6114864;28;20430;-86
2024/01/30 10:04:09;;;;;;;44.03;17.95;;;;;;;;;;6111317;28;20054;-87
2024/01/30 10:07:15;;;;;;;29.35;15.00;;;;;;;;;;6133838;28;20050;-86
2024/01/30 10:10:17;;;;;;;31.08;14.90;;;;;;;;;;6053842;28;20054;-87
2024/01/30 10:13:21;;;;;;;32.25;16.17;;;;;;;;;;6117321;28;20098;-86
2024/01/30 10:16:23;;;;;;;31.60;17.27;;;;;;;;;;6145906;28;20047;-88
2024/01/30 10:19:26;;;;;;;31.58;15.80;;;;;;;;;;6122312;28;20570;-87
2024/01/30 10:22:28;;;;;;;32.15;16.08;;;;;;;;;;6100815;28;20043;-86
2024/01/30 10:25:33;;;;;;;34.25;18.23;;;;;;;;;;6109626;28;20308;-87
2024/01/30 10:28:35;;;;;;;34.42;18.00;;;;;;;;;;6136799;28;20051;-86
2024/01/30 10:31:37;;;;;;;32.15;16.38;;;;;;;;;;6125176;28;20118;-87
2024/01/30 10:34:39;;;;;;;33.67;17.27;;;;;;;;;;6145371;28;20047;-87
2024/01/30 10:37:47;;;;;;;34.17;17.23;;;;;;;;;;6122099;28;20059;-87
2024/01/30 10:40:53;;;;;;;28.00;15.68;;;;;;;;;;6127496;28;20177;-87
2024/01/30 10:44:07;;;;;;;32.30;15.45;;;;;;;;;;6134250;28;20077;-88
2024/01/30 10:47:13;;;;;;;32.33;14.82;;;;;;;;;;6128277;28;20462;-86
2024/01/30 10:50:16;;;;;;;27.98;15.10;;;;;;;;;;6134382;28;20438;-86
2024/01/30 10:53:19;;;;;;;27.48;16.45;;;;;;;;;;6165369;28;20051;-86
2024/01/30 10:56:21;;;;;;;29.00;16.80;;;;;;;;;;6144865;28;20051;-86
2024/01/30 10:59:24;;;;;;;34.08;19.05;;;;;;;;;;6158071;28;20566;-87
2024/01/30 11:02:29;;;;;;;34.95;18.00;;;;;;;;;;6147263;28;20576;-86
2024/01/30 11:05:35;;;;;;;35.92;17.77;;;;;;;;;;6136426;28;20066;-86
2024/01/30 11:08:37;;;;;;;39.45;18.77;;;;;;;;;;6149874;28;20043;-87
2024/01/30 11:11:59;;;;;;;34.50;17.75;;;;;;;;;;6134828;28;20170;-87
2024/01/30 11:15:06;;;;;;;25.70;16.38;;;;;;;;;;6139628;28;20102;-87
2024/01/30 11:18:08;;;;;;;31.60;16.40;;;;;;;;;;6138234;28;20138;-86
2024/01/30 11:21:15;;;;;;;25.08;15.02;;;;;;;;;;6120222;28;20411;-86
2024/01/30 11:24:19;;;;;;;28.65;15.55;;;;;;;;;;6146321;28;20050;-86
2024/01/30 11:27:21;;;;;;;25.60;14.25;;;;;;;;;;6115370;28;20054;-87
2024/01/30 11:30:28;;;;;;;26.13;14.82;;;;;;;;;;6121201;28;20053;-85
2024/01/30 11:33:30;;;;;;;28.08;15.00;;;;;;;;;;6118471;28;20054;-86
2024/01/30 11:36:37;;;;;;;28.38;15.00;;;;;;;;;;6132704;28;20101;-86
2024/01/30 11:39:41;;;;;;;21.67;14.38;;;;;;;;;;6153744;28;20062;-86
2024/01/30 11:42:43;;;;;;;26.42;14.30;;;;;;;;;;6157680;28;20745;-85
2024/01/30 11:45:46;;;;;;;27.75;15.38;;;;;;;;;;6147696;28;20608;-85
2024/01/30 11:48:48;;;;;;;24.85;14.13;;;;;;;;;;6152691;28;20661;-85
2024/01/30 11:51:50;;;;;;;27.23;14.50;;;;;;;;;;6138287;28;20051;-85
2024/01/30 11:54:53;;;;;;;25.35;15.02;;;;;;;;;;6134079;28;20047;-85
2024/01/30 11:57:56;;;;;;;24.23;14.10;;;;;;;;;;6122907;28;20046;-86
2024/01/30 12:00:57;;;;;;;26.98;15.38;;;;;;;;;;6137479;28;20525;-85
2024/01/30 12:04:00;;;;;;;24.60;14.50;;;;;;;;;;6168698;28;20135;-86
2024/01/30 12:07:02;;;;;;;29.10;14.95;;;;;;;;;;6150450;28;20426;-86
2024/01/30 12:10:05;;;;;;;;;;;;;;;;;;6140983;28;20047;-86
2024/01/30 12:13:07;;;;;;;22.33;13.15;;;;;;;;;;6143241;28;19937;-86
2024/01/30 12:16:09;;;;;;;24.98;14.73;;;;;;;;;;6167096;28;20062;-86
2024/01/30 12:19:11;;;;;;;25.88;14.43;;;;;;;;;;6139944;28;20051;-82
2024/01/30 12:22:13;;;;;;;23.23;13.80;;;;;;;;;;6144593;28;20075;-85
2024/01/30 12:25:18;;;;;;;60.42;23.20;;;;;;;;;;6131476;28;20287;-85
2024/01/30 12:28:23;;;;;;;33.20;17.48;;;;;;;;;;6127485;28;20134;-87
2024/01/30 12:31:27;;;;;;;50.78;24.33;;;;;;;;;;6161387;28;20047;-88
2024/01/30 12:34:33;;;;;;;57.55;28.52;;;;;;;;;;6109178;28;20318;-88
2024/01/30 12:38:14;;;;;;;54.47;22.30;;;;;;;;;;6107201;28;20038;-90
2024/01/30 12:41:28;;;;;;;37.58;19.48;;;;;;;;;;6106308;28;20772;-90
2024/01/30 12:44:31;;;;;;;41.30;21.00;;;;;;;;;;6097306;28;20050;-87
2024/01/30 12:47:36;;;;;;;31.42;17.50;;;;;;;;;;6129659;28;20051;-86
2024/01/30 12:50:38;;;;;;;29.45;18.20;;;;;;;;;;6131937;28;20049;-88
2024/01/30 12:53:41;;;;;;;43.90;19.40;;;;;;;;;;6135840;28;20039;-88
2024/01/30 12:56:53;;;;;;;28.88;16.58;;;;;;;;;;6132169;28;20055;-87
2024/01/30 12:59:55;;;;;;;37.42;18.05;;;;;;;;;;6156340;28;20063;-87
2024/01/30 13:03:00;;;;;;;28.27;16.98;;;;;;;;;;6157948;28;20042;-87
2024/01/30 13:06:03;;;;;;;39.88;18.65;;;;;;;;;;6160524;28;20050;-86
2024/01/30 13:09:05;;;;;;;27.38;15.38;;;;;;;;;;6159895;28;20046;-86
2024/01/30 13:12:07;;;;;;;25.40;14.45;;;;;;;;;;6159492;28;20050;-87
2024/01/30 13:15:11;;;;;;;25.08;14.75;;;;;;;;;;6151733;28;20049;-87
2024/01/30 13:18:13;;;;;;;25.67;14.43;;;;;;;;;;6134237;28;20046;-86
2024/01/30 13:21:15;;;;;;;24.13;14.70;;;;;;;;;;6176513;28;20053;-86
2024/01/30 13:24:21;;;;;;;26.33;14.10;;;;;;;;;;6135107;28;20479;-88
2024/01/30 13:27:23;;;;;;;23.52;14.52;;;;;;;;;;6135815;28;20047;-86
2024/01/30 13:30:25;;;;;;;24.77;14.05;;;;;;;;;;6126975;28;20054;-86
2024/01/30 13:33:27;;;;;;;25.55;14.73;;;;;;;;;;6145399;28;20047;-86
2024/01/30 13:36:29;;;;;;;27.67;14.90;;;;;;;;;;6116584;28;20110;-86
2024/01/30 13:39:30;;;;;;;26.63;14.73;;;;;;;;;;6118582;28;20086;-87
2024/01/30 13:42:39;;;;;;;22.33;13.80;;;;;;;;;;6108019;28;20541;-86
2024/01/30 13:45:42;;;;;;;23.17;14.52;;;;;;;;;;6117500;28;20091;-88
2024/01/30 13:48:47;;;;;;;60.10;29.73;;;;;;;;;;6066422;28;20052;-87
2024/01/30 13:52:06;;;;;;;75.45;36.92;;;;;;;;;;6092949;28;20538;-87
2024/01/30 13:55:17;;;;;;;302.75;116.75;;;;;;;;;;6113596;28;20051;-85
2024/01/30 13:58:19;;;;;;;56.33;25.95;;;;;;;;;;6129553;28;20047;-88
2024/01/30 14:01:24;;;;;;;403.08;134.80;;;;;;;;;;6119857;28;20117;-85
2024/01/30 14:04:26;;;;;;;86.28;44.45;;;;;;;;;;6142584;28;20051;-87
2024/01/30 14:07:28;;;;;;;132.23;48.13;;;;;;;;;;6186695;28;20047;-87
2024/01/30 14:10:31;;;;;;;96.40;39.40;;;;;;;;;;6128428;28;20105;-88
2024/01/30 14:13:35;;;;;;;268.50;93.37;;;;;;;;;;6157183;28;20086;-88
2024/01/30 14:16:40;;;;;;;75.57;35.47;;;;;;;;;;6119960;28;20043;-87
2024/01/30 14:19:42;;;;;;;26.10;15.50;;;;;;;;;;6116482;28;20062;-86
2024/01/30 14:22:45;;;;;;;28.15;16.95;;;;;;;;;;6128397;28;20142;-87
2024/01/30 14:25:49;;;;;;;30.17;15.38;;;;;;;;;;6158908;28;20103;-88
2024/01/30 14:28:55;;;;;;;27.27;14.90;;;;;;;;;;6158832;28;20072;-89
2024/01/30 14:31:57;;;;;;;27.40;14.48;;;;;;;;;;6137110;28;20035;-83
2024/01/30 14:34:58;;;;;;;23.48;14.68;;;;;;;;;;6156216;28;20074;-84
2024/01/30 14:38:01;;;;;;;33.35;19.67;;;;;;;;;;6168108;28;20046;-84
2024/01/30 14:41:04;;;;;;;25.77;17.10;;;;;;;;;;6145135;28;20051;-85
2024/01/30 14:44:07;;;;;;;26.27;15.70;;;;;;;;;;6149053;28;20612;-86
2024/01/30 14:47:09;;;;;;;;;;;;;;;;;;6129150;28;20043;-86
2024/01/30 14:50:11;;;;;;;28.02;15.95;;;;;;;;;;6142355;28;20364;-86
2024/01/30 14:53:13;;;;;;;28.90;18.00;;;;;;;;;;6143164;28;20201;-87
2024/01/30 14:56:14;;;;;;;27.92;18.80;;;;;;;;;;6154569;28;20062;-86
2024/01/30 14:59:16;;;;;;;32.00;21.38;;;;;;;;;;6153142;28;20051;-86
2024/01/30 15:02:18;;;;;;;36.67;19.17;;;;;;;;;;6124964;28;20051;-85
2024/01/30 15:05:20;;;;;;;38.53;26.23;;;;;;;;;;6138170;28;20051;-85
2024/01/30 15:08:22;;;;;;;29.23;18.15;;;;;;;;;;6119969;28;20054;-86
2024/01/30 15:11:27;;;;;;;33.83;22.10;;;;;;;;;;6151756;28;20126;-85
2024/01/30 15:14:29;;;;;;;32.05;20.50;;;;;;;;;;6135046;28;20050;-84
2024/01/30 15:17:31;;;;;;;33.75;17.00;;;;;;;;;;6138382;28;20044;-83
2024/01/30 15:20:32;;;;;;;31.55;17.60;;;;;;;;;;6123886;28;20054;-83
2024/01/30 15:23:34;;;;;;;28.90;17.13;;;;;;;;;;6154779;28;20498;-85
2024/01/30 15:26:36;;;;;;;33.40;21.67;;;;;;;;;;6145098;28;20051;-85
2024/01/30 15:29:38;;;;;;;29.77;16.95;;;;;;;;;;6131565;28;20081;-86
2024/01/30 15:32:41;;;;;;;40.70;27.58;;;;;;;;;;6113840;28;20118;-87
2024/01/30 15:35:42;;;;;;;30.50;18.48;;;;;;;;;;6137499;28;20051;-83
2024/01/30 15:38:44;;;;;;;29.88;16.30;;;;;;;;;;6138692;28;20043;-84
2024/01/30 15:41:46;;;;;;;28.08;16.17;;;;;;;;;;6133050;28;20055;-85
2024/01/30 15:44:48;;;;;;;29.00;16.38;;;;;;;;;;6119312;28;20043;-85
2024/01/30 15:47:49;;;;;;;26.25;16.10;;;;;;;;;;6120037;28;20047;-85
2024/01/30 15:50:52;;;;;;;26.35;16.33;;;;;;;;;;6136165;28;20050;-85
2024/01/30 15:53:53;;;;;;;27.48;16.33;;;;;;;;;;6137278;28;20054;-85
2024/01/30 15:56:55;;;;;;;36.30;23.00;;;;;;;;;;6127108;28;20101;-85
2024/01/30 15:59:57;;;;;;;32.05;20.98;;;;;;;;;;6128512;28;20056;-86
2024/01/30 16:03:01;;;;;;;29.42;18.48;;;;;;;;;;6112062;28;20049;-86
2024/01/30 16:06:03;;;;;;;28.25;16.38;;;;;;;;;;6132369;28;20055;-85
2024/01/30 16:09:07;;;;;;;26.88;15.13;;;;;;;;;;6126777;28;20050;-85
2024/01/30 16:12:10;;;;;;;26.88;15.07;;;;;;;;;;6137140;28;20409;-86
2024/01/30 16:15:15;;;;;;;29.15;15.75;;;;;;;;;;6137238;28;20069;-85
2024/01/30 16:18:16;;;;;;;30.30;17.38;;;;;;;;;;6134002;28;20070;-83
2024/01/30 16:21:18;;;;;;;29.17;17.73;;;;;;;;;;6152019;28;20051;-85
2024/01/30 16:24:22;;;;;;;33.80;19.42;;;;;;;;;;6139138;28;20059;-85
2024/01/30 16:27:24;;;;;;;34.25;18.90;;;;;;;;;;6139782;28;20051;-86
2024/01/30 16:30:26;;;;;;;36.47;19.45;;;;;;;;;;6154222;28;20391;-86
2024/01/30 16:33:28;;;;;;;41.28;20.50;;;;;;;;;;6118463;28;20047;-86
2024/01/30 16:36:30;;;;;;;38.35;19.83;;;;;;;;;;6137965;28;20083;-85
2024/01/30 16:39:32;;;;;;;67.00;34.40;;;;;;;;;;6123666;28;20525;-87
2024/01/30 16:42:34;;;;;;;56.08;31.60;;;;;;;;;;6136224;28;20111;-85
2024/01/30 16:45:36;;;;;;;80.97;37.85;;;;;;;;;;6129521;28;20051;-86
2024/01/30 16:48:38;;;;;;;73.05;34.58;;;;;;;;;;6119721;28;20051;-85
2024/01/30 16:51:40;;;;;;;49.42;26.02;;;;;;;;;;6115288;28;20054;-87
2024/01/30 16:54:42;;;;;;;41.90;25.00;;;;;;;;;;6126107;28;20122;-85
2024/01/30 16:57:46;;;;;;;40.15;22.05;;;;;;;;;;6126539;28;20058;-86
2024/01/30 17:00:48;;;;;;;39.03;21.70;;;;;;;;;;6109573;28;20043;-87
2024/01/30 17:03:51;;;;;;;49.30;26.03;;;;;;;;;;6122341;28;20518;-86
2024/01/30 17:06:53;;;;;;;46.42;23.42;;;;;;;;;;6117046;28;20055;-87
2024/01/30 17:10:00;;;;;;;42.10;23.90;;;;;;;;;;6110667;28;20047;-86
2024/01/30 17:13:02;;;;;;;37.45;20.20;;;;;;;;;;6134616;28;20074;-87
2024/01/30 17:16:04;;;;;;;53.63;27.75;;;;;;;;;;6162759;28;20060;-88
2024/01/30 17:19:07;;;;;;;51.28;27.65;;;;;;;;;;6153971;28;20055;-88
2024/01/30 17:22:09;;;;;;;50.70;27.67;;;;;;;;;;6144048;28;20051;-88
2024/01/30 17:25:14;;;;;;;52.95;29.65;;;;;;;;;;6128565;28;20047;-88
2024/01/30 17:28:21;;;;;;;58.10;31.75;;;;;;;;;;6129439;28;20043;-88
2024/01/30 17:31:23;;;;;;;49.15;27.63;;;;;;;;;;6101357;28;20050;-88
2024/01/30 17:34:26;;;;;;;49.42;28.30;;;;;;;;;;6104493;28;20046;-87
2024/01/30 17:37:28;;;;;;;54.05;30.85;;;;;;;;;;6120883;28;20054;-88
2024/01/30 17:40:32;;;;;;;55.20;29.98;;;;;;;;;;6130410;28;20055;-87
2024/01/30 17:43:34;;;;;;;47.72;26.45;;;;;;;;;;6127566;28;20051;-89
2024/01/30 17:46:36;;;;;;;43.97;26.98;;;;;;;;;;6155795;28;20051;-86